createdAt,value
2023-04-22T00:04:31.407Z,4.43
2023-04-22T00:09:33.084Z,3.75
2023-04-22T00:14:35.393Z,3.47
2023-04-22T00:19:37.409Z,3.78
2023-04-22T00:24:39.193Z,3.97
2023-04-22T00:29:40.993Z,3.70
2023-04-22T00:34:42.904Z,3.47
2023-04-22T00:39:44.410Z,3.47
2023-04-22T00:44:47.420Z,3.78
2023-04-22T00:49:49.797Z,4.00
2023-04-22T00:54:52.309Z,4.10
2023-04-22T00:59:53.971Z,3.78
2023-04-22T01:04:55.554Z,3.95
2023-04-22T01:09:57.886Z,3.70
2023-04-22T01:14:59.815Z,3.70
2023-04-22T01:20:04.252Z,3.40
2023-04-22T01:25:06.840Z,3.50
2023-04-22T01:30:09.792Z,3.58
2023-04-22T01:35:13.805Z,3.80
2023-04-22T01:40:19.715Z,3.90
2023-04-22T01:45:21.228Z,4.05
2023-04-22T01:50:23.395Z,3.70
2023-04-22T01:55:25.037Z,3.65
2023-04-22T02:00:26.576Z,3.33
2023-04-22T02:05:28.106Z,4.07
2023-04-22T02:10:29.645Z,3.67
2023-04-22T02:15:31.236Z,4.43
2023-04-22T02:20:32.837Z,3.55
2023-04-22T02:25:34.360Z,4.05
2023-04-22T02:30:35.865Z,4.50
2023-04-22T02:35:37.552Z,4.10
2023-04-22T02:40:39.162Z,3.78
2023-04-22T02:45:41.433Z,4.28
2023-04-22T02:50:43.044Z,4.65
2023-04-22T02:55:44.646Z,3.97
2023-04-22T03:00:46.219Z,3.97
2023-04-22T03:05:47.749Z,3.92
2023-04-22T03:10:49.933Z,4.15
2023-04-22T03:15:51.494Z,4.22
2023-04-22T03:20:53.915Z,4.55
2023-04-22T03:25:55.744Z,4.38
2023-04-22T03:30:57.687Z,4.43
2023-04-22T03:35:59.632Z,4.30
2023-04-22T03:41:01.535Z,5.20
2023-04-22T03:46:13.269Z,4.25
2023-04-22T03:51:19.064Z,4.45
2023-04-22T03:56:22.270Z,4.57
2023-04-22T04:01:24.490Z,4.78
2023-04-22T04:06:29.143Z,4.40
2023-04-22T04:11:30.821Z,4.05
2023-04-22T04:16:33.146Z,4.18
2023-04-22T04:26:45.197Z,4.57
2023-04-22T04:31:55.333Z,4.70
2023-04-22T04:37:00.941Z,3.70
2023-04-22T04:42:12.110Z,4.65
2023-04-22T04:47:22.634Z,4.45
2023-04-22T04:52:25.519Z,5.07
2023-04-22T04:57:28.556Z,4.97
2023-04-22T05:02:30.961Z,5.38
2023-04-22T05:07:32.712Z,4.78
2023-04-22T05:12:34.302Z,4.47
2023-04-22T05:17:39.028Z,4.95
2023-04-22T05:22:45.829Z,4.80
2023-04-22T05:27:48.679Z,4.38
2023-04-22T05:32:51.778Z,4.85
2023-04-22T05:37:53.418Z,5.30
2023-04-22T05:42:55.178Z,5.85
2023-04-22T05:47:56.880Z,5.75
2023-04-22T05:53:00.820Z,5.38
2023-04-22T05:58:03.429Z,5.07
2023-04-22T06:03:34.092Z,3.80
2023-04-22T06:08:37.087Z,3.42
2023-04-22T06:13:38.807Z,2.75
2023-04-22T06:18:40.672Z,2.63
2023-04-22T06:23:46.227Z,2.97
2023-04-22T06:28:47.758Z,2.92
2023-04-22T06:33:53.141Z,3.20
2023-04-22T06:38:57.257Z,2.85
2023-04-22T06:44:11.293Z,2.42
2023-04-22T06:49:30.093Z,2.92
2023-04-22T06:54:57.843Z,2.35
2023-04-22T06:59:59.386Z,2.40
2023-04-22T07:05:02.401Z,2.67
2023-04-22T07:10:04.927Z,2.40
2023-04-22T07:15:12.262Z,2.30
2023-04-22T07:20:15.975Z,2.17
2023-04-22T07:25:17.506Z,2.38
2023-04-22T07:30:19.002Z,2.30
2023-04-22T07:35:20.509Z,2.20
2023-04-22T07:40:22.004Z,2.28
2023-04-22T07:45:23.544Z,2.42
2023-04-22T07:50:25.218Z,2.00
2023-04-22T07:55:26.786Z,2.28
2023-04-22T08:00:28.454Z,2.03
2023-04-22T08:05:30.106Z,2.53
2023-04-22T08:10:32.221Z,1.95
2023-04-22T08:15:33.762Z,2.00
2023-04-22T08:20:35.303Z,1.85
2023-04-22T08:25:36.973Z,1.77
2023-04-22T08:30:38.528Z,2.00
2023-04-22T08:35:40.486Z,2.00
2023-04-22T08:40:42.665Z,2.15
2023-04-22T08:45:45.034Z,1.95
2023-04-22T08:50:48.258Z,2.17
2023-04-22T08:55:50.622Z,1.67
2023-04-22T09:00:53.012Z,2.13
2023-04-22T09:05:55.241Z,2.00
2023-04-22T09:10:58.609Z,2.00
2023-04-22T09:16:00.193Z,2.33
2023-04-22T09:21:01.781Z,1.90
2023-04-22T09:26:03.735Z,2.10
2023-04-22T09:31:05.433Z,1.95
2023-04-22T09:36:10.202Z,1.60
2023-04-22T09:41:12.402Z,1.88
2023-04-22T09:46:13.986Z,2.00
2023-04-22T09:51:17.095Z,1.70
2023-04-22T09:56:18.676Z,1.40
2023-04-22T10:01:20.242Z,1.55
2023-04-22T10:06:22.317Z,1.48
2023-04-22T10:11:23.852Z,1.67
2023-04-22T10:16:26.374Z,1.52
2023-04-22T10:21:32.414Z,1.63
2023-04-22T10:26:49.242Z,1.60
2023-04-22T10:32:05.715Z,1.83
2023-04-22T10:37:14.534Z,1.83
2023-04-22T10:42:16.126Z,1.43
2023-04-22T10:47:46.941Z,1.63
2023-04-22T10:52:55.109Z,1.70
2023-04-22T10:57:59.506Z,1.67
2023-04-22T11:03:10.564Z,1.50
2023-04-22T11:08:13.693Z,1.50
2023-04-22T11:13:17.330Z,1.60
2023-04-22T11:18:27.151Z,1.42
2023-04-22T11:23:29.047Z,1.20
2023-04-22T11:28:31.057Z,1.40
2023-04-22T11:33:34.400Z,1.25
2023-04-22T11:38:36.066Z,1.70
2023-04-22T11:43:46.955Z,1.30
2023-04-22T11:48:48.434Z,1.30
2023-04-22T11:53:51.213Z,1.50
2023-04-22T11:58:52.750Z,1.40
2023-04-22T12:04:00.078Z,1.20
2023-04-22T12:09:03.851Z,1.30
2023-04-22T12:14:08.424Z,1.52
2023-04-22T12:19:10.059Z,1.20
2023-04-22T12:24:11.662Z,1.30
2023-04-22T12:29:13.214Z,1.30
2023-04-22T12:34:14.695Z,1.50
2023-04-22T12:39:16.297Z,2.08
2023-04-22T12:44:17.831Z,1.27
2023-04-22T12:49:19.339Z,1.10
2023-04-22T12:54:21.550Z,1.20
2023-04-22T12:59:23.157Z,1.50
2023-04-22T13:04:24.741Z,1.30
2023-04-22T13:09:27.212Z,1.30
2023-04-22T13:14:31.157Z,1.10
2023-04-22T13:19:35.123Z,1.10
2023-04-22T13:24:36.717Z,1.40
2023-04-22T13:29:38.705Z,1.15
2023-04-22T13:34:40.522Z,1.10
2023-04-22T13:39:42.490Z,1.65
2023-04-22T13:44:44.312Z,1.08
2023-04-22T13:49:45.913Z,1.23
2023-04-22T13:54:47.501Z,1.38
2023-04-22T13:59:50.247Z,1.20
2023-04-22T14:04:52.024Z,1.55
2023-04-22T14:09:53.505Z,1.33
2023-04-22T14:14:55.006Z,1.23
2023-04-22T14:19:56.821Z,1.30
2023-04-22T14:24:58.394Z,1.17
2023-04-22T14:29:59.950Z,1.30
2023-04-22T14:35:01.662Z,1.10
2023-04-22T14:40:04.162Z,1.70
2023-04-22T14:45:06.183Z,1.35
2023-04-22T14:50:07.966Z,1.48
2023-04-22T14:55:22.028Z,1.30
2023-04-22T15:00:28.239Z,1.17
2023-04-22T15:05:29.783Z,1.08
2023-04-22T15:10:31.316Z,1.40
2023-04-22T15:15:32.835Z,1.30
2023-04-22T15:20:35.006Z,1.25
2023-04-22T15:25:36.638Z,2.03
2023-04-22T15:30:38.204Z,1.08
2023-04-22T15:35:45.105Z,1.85
2023-04-22T15:40:46.935Z,1.20
2023-04-22T15:45:48.496Z,1.35
2023-04-22T15:50:50.027Z,1.17
2023-04-22T15:55:51.674Z,1.58
2023-04-22T16:00:53.289Z,1.65
2023-04-22T16:05:55.350Z,1.30
2023-04-22T16:10:56.891Z,1.30
2023-04-22T16:15:58.533Z,1.40
2023-04-22T16:21:00.598Z,1.50
2023-04-22T16:26:04.431Z,1.73
2023-04-22T16:31:06.154Z,1.40
2023-04-22T16:36:08.929Z,1.20
2023-04-22T16:41:11.614Z,1.45
2023-04-22T16:46:13.347Z,1.35
2023-04-22T16:51:14.949Z,1.20
2023-04-22T16:56:16.422Z,1.40
2023-04-22T17:01:17.987Z,1.33
2023-04-22T17:06:19.694Z,1.40
2023-04-22T17:11:21.990Z,1.40
2023-04-22T17:16:23.813Z,1.25
2023-04-22T17:21:27.008Z,1.80
2023-04-22T17:26:29.340Z,1.52
2023-04-22T17:31:31.069Z,1.52
2023-04-22T17:36:32.760Z,1.50
2023-04-22T17:41:34.393Z,1.65
2023-04-22T17:46:35.985Z,1.38
2023-04-22T17:51:37.573Z,1.20
2023-04-22T17:56:39.219Z,1.75
2023-04-22T18:01:40.831Z,1.33
2023-04-22T18:06:42.366Z,1.27
2023-04-22T18:11:44.028Z,1.42
2023-04-22T18:16:45.582Z,1.38
2023-04-22T18:21:59.086Z,1.60
2023-04-22T18:27:02.782Z,1.20
2023-04-22T18:32:04.460Z,1.70
2023-04-22T18:37:05.975Z,1.80
2023-04-22T18:42:07.612Z,1.60
2023-04-22T18:47:09.344Z,1.52
2023-04-22T18:52:13.469Z,1.50
2023-04-22T18:57:14.956Z,1.65
2023-04-22T19:02:16.603Z,1.67
2023-04-22T19:07:18.152Z,1.55
2023-04-22T19:12:19.770Z,1.90
2023-04-22T19:17:21.371Z,1.80
2023-04-22T19:22:22.992Z,2.00
2023-04-22T19:27:25.473Z,1.70
2023-04-22T19:32:27.014Z,2.15
2023-04-22T19:37:28.605Z,1.92
2023-04-22T19:42:30.508Z,2.20
2023-04-22T19:47:32.243Z,2.22
2023-04-22T19:52:35.287Z,2.30
2023-04-22T19:57:37.434Z,2.17
2023-04-22T20:02:39.316Z,2.20
2023-04-22T20:07:43.357Z,2.30
2023-04-22T20:12:45.941Z,2.45
2023-04-22T20:17:47.829Z,2.50
2023-04-22T20:22:53.848Z,3.28
2023-04-22T20:27:56.211Z,2.80
2023-04-22T20:32:57.901Z,2.80
2023-04-22T20:38:00.514Z,2.45
2023-04-22T20:43:02.113Z,2.65
2023-04-22T20:48:03.750Z,2.88
2023-04-22T20:53:05.387Z,2.65
2023-04-22T20:58:06.890Z,2.67
2023-04-22T21:03:09.233Z,2.55
2023-04-22T21:08:24.958Z,2.42
2023-04-22T21:13:27.352Z,2.60
2023-04-22T21:18:31.591Z,2.58
2023-04-22T21:23:33.227Z,2.60
2023-04-22T21:28:35.123Z,2.40
2023-04-22T21:33:37.687Z,2.40
2023-04-22T21:38:39.218Z,2.72
2023-04-22T21:43:41.442Z,3.03
2023-04-22T21:48:47.420Z,2.70
2023-04-22T21:53:49.795Z,3.10
2023-04-22T21:58:51.332Z,2.70
2023-04-22T22:03:53.237Z,3.13
2023-04-22T22:08:55.760Z,2.80
2023-04-22T22:13:57.284Z,3.40
2023-04-22T22:18:58.928Z,3.15
2023-04-22T22:24:00.479Z,2.92
2023-04-22T22:29:02.458Z,3.20
2023-04-22T22:34:04.062Z,3.58
2023-04-22T22:39:05.639Z,3.33
2023-04-22T22:44:07.130Z,3.38
2023-04-22T22:49:09.489Z,3.65
2023-04-22T22:54:11.126Z,3.17
2023-04-22T22:59:12.721Z,2.85
2023-04-22T23:04:15.768Z,3.33
2023-04-22T23:09:19.039Z,3.10
2023-04-22T23:14:21.757Z,3.03
2023-04-22T23:19:23.489Z,4.05
2023-04-22T23:24:25.368Z,3.67
2023-04-22T23:29:27.276Z,5.00
2023-04-22T23:34:31.775Z,4.45
2023-04-22T23:39:33.411Z,5.50
2023-04-22T23:44:34.897Z,5.57
2023-04-22T23:49:36.693Z,5.13
2023-04-22T23:54:39.345Z,4.68
2023-04-22T23:59:43.561Z,6.00
